Time;durP1;ratioP1;P1;durP2;ratioP2;P2;SDS_P1;SDS_P2;PMS_P1;PMS_P2;Temp;Humidity;BMP_temperature;BMP_pressure;BME280_temperature;BME280_humidity;BME280_pressure;Samples;Min_cycle;Max_cycle;Signal;HPM_P1;HPM_P2
2023/05/25 00:01:06;;;;;;;11.00;9.83;;;12.50;99.90;;;;;;5071562;28;20549;-73
2023/05/25 00:03:32;;;;;;;11.20;10.10;;;12.50;99.90;;;;;;5071326;28;20431;-73
2023/05/25 00:06:00;;;;;;;10.87;8.93;;;12.50;99.90;;;;;;5069832;28;20445;-73
2023/05/25 00:08:27;;;;;;;10.70;9.60;;;12.40;99.90;;;;;;5071582;28;20176;-73
2023/05/25 00:10:52;;;;;;;9.77;8.87;;;12.40;99.90;;;;;;5069295;28;20427;-73
2023/05/25 00:13:18;;;;;;;11.87;8.87;;;12.40;99.90;;;;;;5070520;28;20842;-73
2023/05/25 00:15:44;;;;;;;9.43;8.23;;;12.40;99.90;;;;;;5070745;28;20683;-73
2023/05/25 00:18:10;;;;;;;8.90;8.10;;;12.40;99.90;;;;;;5073773;28;20181;-73
2023/05/25 00:20:36;;;;;;;11.77;9.70;;;12.30;99.90;;;;;;5073027;28;20251;-73
2023/05/25 00:23:02;;;;;;;14.53;9.97;;;12.30;99.90;;;;;;5073664;28;20428;-73
2023/05/25 00:25:28;;;;;;;14.87;10.17;;;12.20;99.90;;;;;;5073699;28;20204;-73
2023/05/25 00:27:54;;;;;;;10.40;9.40;;;12.30;99.90;;;;;;5072808;28;20184;-73
2023/05/25 00:30:20;;;;;;;12.67;10.53;;;12.20;99.90;;;;;;5074517;28;20534;-73
2023/05/25 00:32:46;;;;;;;14.00;11.77;;;12.00;99.90;;;;;;5072946;28;20177;-73
2023/05/25 00:35:12;;;;;;;15.93;11.50;;;11.80;99.90;;;;;;5074632;28;20182;-73
2023/05/25 00:37:38;;;;;;;14.30;10.87;;;11.60;99.90;;;;;;5083903;28;20813;-73
2023/05/25 00:40:09;;;;;;;12.13;10.87;;;11.50;99.90;;;;;;5087355;28;20213;-73
2023/05/25 00:42:38;;;;;;;12.27;10.93;;;11.40;99.90;;;;;;5074169;28;20218;-73
2023/05/25 00:45:04;;;;;;;15.53;11.03;;;11.40;99.90;;;;;;5073563;28;20524;-72
2023/05/25 00:47:30;;;;;;;14.60;11.27;;;11.40;99.90;;;;;;5073673;28;20749;-73
2023/05/25 00:49:57;;;;;;;18.10;10.53;;;11.50;99.90;;;;;;5074248;28;20861;-72
2023/05/25 00:52:22;;;;;;;13.67;11.10;;;11.60;99.90;;;;;;5073648;28;20427;-72
2023/05/25 00:54:53;;;;;;;12.80;10.63;;;11.80;99.90;;;;;;5073183;28;20488;-72
2023/05/25 00:57:22;;;;;;;14.87;11.53;;;11.90;99.90;;;;;;5074845;28;20174;-72
2023/05/25 00:59:51;;;;;;;11.30;9.87;;;11.90;99.90;;;;;;5072837;28;20427;-73
2023/05/25 01:02:18;;;;;;;11.93;10.23;;;12.00;99.90;;;;;;5069744;28;20438;-73
2023/05/25 01:04:48;;;;;;;13.77;10.83;;;12.10;99.90;;;;;;5073605;28;20452;-73
2023/05/25 01:07:22;;;;;;;16.13;10.83;;;12.20;99.90;;;;;;5083499;28;20476;-73
2023/05/25 01:09:53;;;;;;;12.00;10.80;;;12.20;99.90;;;;;;5082729;28;20443;-73
2023/05/25 01:12:21;;;;;;;14.73;10.83;;;12.30;99.90;;;;;;5072482;28;20439;-73
2023/05/25 01:14:48;;;;;;;16.63;11.00;;;12.30;99.90;;;;;;5072117;28;20506;-73
2023/05/25 01:17:14;;;;;;;13.97;11.00;;;12.30;99.90;;;;;;5072832;28;20431;-73
2023/05/25 01:19:44;;;;;;;14.60;11.27;;;12.30;99.90;;;;;;5072302;28;20518;-73
2023/05/25 01:22:52;;;;;;;12.70;11.47;;;12.30;99.90;;;;;;5073860;28;20415;-73
2023/05/25 01:25:24;;;;;;;13.10;9.77;;;12.40;99.90;;;;;;5072491;28;20427;-73
2023/05/25 01:28:14;;;;;;;11.13;9.80;;;12.30;99.90;;;;;;5071288;28;20431;-73
2023/05/25 01:30:42;;;;;;;11.20;9.93;;;12.30;99.90;;;;;;5080893;28;20437;-73
2023/05/25 01:33:10;;;;;;;11.70;9.43;;;12.30;99.90;;;;;;5073874;28;20415;-73
2023/05/25 01:35:36;;;;;;;11.80;9.87;;;12.30;99.90;;;;;;5072175;28;20456;-73
2023/05/25 01:38:07;;;;;;;12.20;10.60;;;12.30;99.90;;;;;;5070820;28;20996;-73
2023/05/25 01:40:32;;;;;;;10.40;9.37;;;12.30;99.90;;;;;;5072101;28;20457;-73
2023/05/25 01:42:58;;;;;;;12.03;9.67;;;12.30;99.90;;;;;;5071402;28;20594;-73
2023/05/25 01:45:24;;;;;;;9.87;8.87;;;12.20;99.90;;;;;;5080759;28;20719;-73
2023/05/25 01:48:25;;;;;;;10.27;9.27;;;12.20;99.90;;;;;;5088141;28;20531;-73
2023/05/25 01:50:57;;;;;;;10.30;9.27;;;12.20;99.90;;;;;;5073518;28;20452;-73
2023/05/25 01:53:28;;;;;;;9.87;8.70;;;12.20;99.90;;;;;;5073539;28;20388;-73
2023/05/25 01:55:59;;;;;;;10.93;8.70;;;12.10;99.90;;;;;;5071361;28;20426;-73
2023/05/25 01:58:27;;;;;;;11.73;8.97;;;12.10;99.90;;;;;;5073377;28;20430;-73
2023/05/25 02:00:54;;;;;;;9.83;8.77;;;12.10;99.90;;;;;;5072200;28;20443;-73
2023/05/25 02:03:20;;;;;;;14.27;9.00;;;12.00;99.90;;;;;;5071578;28;20441;-73
2023/05/25 02:05:46;;;;;;;9.00;8.07;;;12.00;99.90;;;;;;5053375;28;20435;-73
2023/05/25 02:08:12;;;;;;;9.80;9.00;;;12.00;99.90;;;;;;5071724;28;20407;-73
2023/05/25 02:10:38;;;;;;;9.90;8.50;;;12.00;99.90;;;;;;5086662;28;20439;-73
2023/05/25 02:13:03;;;;;;;11.03;8.93;;;12.00;99.90;;;;;;5075182;28;20189;-73
2023/05/25 02:15:32;;;;;;;13.80;8.73;;;12.00;99.90;;;;;;5085322;28;20188;-73
2023/05/25 02:17:59;;;;;;;10.50;8.50;;;12.00;99.90;;;;;;5091956;28;20766;-73
2023/05/25 02:20:26;;;;;;;9.70;8.70;;;11.90;99.90;;;;;;5092984;28;20446;-73
2023/05/25 02:22:52;;;;;;;9.23;8.40;;;11.90;99.90;;;;;;5090956;28;20487;-73
2023/05/25 02:25:18;;;;;;;10.20;9.20;;;11.90;99.90;;;;;;5089602;28;20457;-73
2023/05/25 02:27:44;;;;;;;9.70;8.73;;;11.90;99.90;;;;;;5077804;28;20177;-73
2023/05/25 02:30:10;;;;;;;9.23;8.27;;;11.90;99.90;;;;;;5072515;28;20253;-73
2023/05/25 02:32:36;;;;;;;8.70;8.00;;;11.90;99.90;;;;;;5072626;28;20499;-73
2023/05/25 02:35:02;;;;;;;8.90;8.03;;;11.90;99.90;;;;;;5070480;28;20486;-73
2023/05/25 02:37:28;;;;;;;11.00;8.07;;;11.90;99.90;;;;;;5071706;28;20513;-72
2023/05/25 02:39:53;;;;;;;8.90;8.10;;;11.90;99.90;;;;;;5071224;28;20789;-73
2023/05/25 02:42:19;;;;;;;9.50;8.70;;;11.80;99.90;;;;;;5071193;28;20223;-72
2023/05/25 02:44:47;;;;;;;9.53;8.73;;;11.80;99.90;;;;;;5071383;28;20180;-73
2023/05/25 02:47:17;;;;;;;9.47;8.67;;;11.80;99.90;;;;;;5071391;28;20433;-73
2023/05/25 02:49:44;;;;;;;10.93;9.80;;;11.80;99.90;;;;;;5071805;28;20461;-74
2023/05/25 02:52:10;;;;;;;8.60;7.90;;;11.70;99.90;;;;;;5069811;28;20934;-73
2023/05/25 02:54:36;;;;;;;9.30;7.63;;;11.70;99.90;;;;;;5052235;28;20416;-73
2023/05/25 02:57:03;;;;;;;10.57;8.70;;;11.70;99.90;;;;;;5051342;28;20486;-73
2023/05/25 02:59:29;;;;;;;9.50;8.53;;;11.70;99.90;;;;;;5061769;28;20184;-73
2023/05/25 03:01:55;;;;;;;10.03;7.97;;;11.70;99.90;;;;;;5091554;28;20441;-73
2023/05/25 03:04:23;;;;;;;9.80;8.87;;;11.70;99.90;;;;;;5089942;28;20929;-73
2023/05/25 03:06:48;;;;;;;9.17;8.37;;;11.70;99.90;;;;;;5091549;28;20208;-74
2023/05/25 03:09:14;;;;;;;10.67;9.67;;;11.70;99.90;;;;;;5092523;28;20430;-74
2023/05/25 03:11:40;;;;;;;10.33;9.23;;;11.60;99.90;;;;;;5071960;28;20189;-85
2023/05/25 03:14:06;;;;;;;9.63;7.77;;;11.70;99.90;;;;;;5070082;28;20177;-74
2023/05/25 03:16:34;;;;;;;10.63;9.57;;;11.60;99.90;;;;;;5072053;28;20173;-74
2023/05/25 03:19:02;;;;;;;9.80;8.90;;;11.50;99.90;;;;;;5071229;28;20404;-74
2023/05/25 03:21:27;;;;;;;12.00;9.27;;;11.50;99.90;;;;;;5079992;28;20542;-73
2023/05/25 03:23:53;;;;;;;14.30;9.70;;;11.50;99.90;;;;;;5091365;28;20907;-74
2023/05/25 03:26:19;;;;;;;12.13;10.23;;;11.40;99.90;;;;;;5091291;28;20521;-74
2023/05/25 03:28:45;;;;;;;12.17;9.80;;;11.30;99.90;;;;;;5091674;28;20174;-75
2023/05/25 03:31:11;;;;;;;11.93;10.00;;;11.20;99.90;;;;;;5091973;28;20226;-74
2023/05/25 03:33:37;;;;;;;10.73;9.67;;;11.20;99.90;;;;;;5092076;28;20176;-74
2023/05/25 03:36:11;;;;;;;10.60;9.50;;;11.20;99.90;;;;;;5091272;28;20410;-74
2023/05/25 03:38:37;;;;;;;12.57;11.10;;;11.20;99.90;;;;;;5091436;28;20503;-75
2023/05/25 03:41:03;;;;;;;12.00;10.37;;;11.10;99.90;;;;;;5091213;28;21000;-74
2023/05/25 03:43:30;;;;;;;14.87;13.63;;;11.10;99.90;;;;;;5074830;28;20430;-75
2023/05/25 03:45:56;;;;;;;10.97;9.87;;;11.10;99.90;;;;;;5070859;28;20418;-75
2023/05/25 03:48:21;;;;;;;11.90;10.57;;;11.00;99.90;;;;;;5071516;28;20410;-74
2023/05/25 03:50:47;;;;;;;12.73;11.10;;;11.10;99.90;;;;;;5094287;28;20184;-75
2023/05/25 03:53:13;;;;;;;11.97;10.20;;;11.20;99.90;;;;;;5094660;28;20516;-75
2023/05/25 03:55:38;;;;;;;10.83;9.30;;;11.10;99.90;;;;;;5094595;28;20265;-74
2023/05/25 03:58:04;;;;;;;13.13;10.60;;;11.20;99.90;;;;;;5094954;28;20250;-74
2023/05/25 04:00:30;;;;;;;15.33;10.20;;;11.20;99.90;;;;;;5094476;28;20208;-74
2023/05/25 04:02:56;;;;;;;11.80;10.57;;;11.20;99.90;;;;;;5093603;28;20176;-74
2023/05/25 04:05:21;;;;;;;12.20;10.90;;;11.30;99.90;;;;;;5095549;28;20182;-74
2023/05/25 04:07:47;;;;;;;15.50;11.10;;;11.30;99.90;;;;;;5094819;28;20181;-75
2023/05/25 04:10:13;;;;;;;12.43;11.20;;;11.30;99.90;;;;;;5095356;28;20418;-74
2023/05/25 04:12:39;;;;;;;15.93;10.90;;;11.40;99.90;;;;;;5081461;28;21052;-74
2023/05/25 04:15:08;;;;;;;17.20;11.57;;;11.40;99.90;;;;;;5073118;28;20401;-74
2023/05/25 04:17:35;;;;;;;10.70;9.67;;;11.50;99.90;;;;;;5083537;28;20184;-74
2023/05/25 04:20:02;;;;;;;10.53;9.53;;;11.50;99.90;;;;;;5094427;28;20541;-74
2023/05/25 04:22:28;;;;;;;13.10;9.57;;;11.50;99.90;;;;;;5094974;28;20972;-74
2023/05/25 04:24:53;;;;;;;14.00;11.50;;;11.50;99.90;;;;;;5091755;28;20413;-75
2023/05/25 04:27:19;;;;;;;13.60;11.37;;;11.50;99.90;;;;;;5093787;28;20693;-74
2023/05/25 04:29:45;;;;;;;17.10;12.17;;;11.50;99.90;;;;;;5093924;28;20175;-74
2023/05/25 04:32:16;;;;;;;13.07;11.07;;;11.50;99.90;;;;;;5094838;28;20179;-74
2023/05/25 04:34:43;;;;;;;13.23;10.60;;;11.60;99.90;;;;;;5092244;28;20424;-74
2023/05/25 04:37:09;;;;;;;15.17;11.90;;;11.60;99.90;;;;;;5092608;28;20403;-74
2023/05/25 04:39:35;;;;;;;12.13;10.83;;;11.60;99.90;;;;;;5093676;28;20438;-74
2023/05/25 04:42:03;;;;;;;12.10;10.70;;;11.70;99.90;;;;;;5085563;28;20529;-74
2023/05/25 04:44:29;;;;;;;12.80;11.60;;;11.70;99.90;;;;;;5084072;28;20184;-74
2023/05/25 04:46:55;;;;;;;13.23;10.20;;;11.70;99.90;;;;;;5083228;28;20433;-74
2023/05/25 04:49:21;;;;;;;11.83;9.77;;;11.70;99.90;;;;;;5093136;28;20802;-74
2023/05/25 04:51:47;;;;;;;14.67;11.90;;;11.70;99.90;;;;;;5094638;28;20410;-74
2023/05/25 04:54:13;;;;;;;13.70;11.77;;;11.80;99.90;;;;;;5091917;28;20553;-74
2023/05/25 04:56:39;;;;;;;13.50;12.10;;;11.80;99.90;;;;;;5072685;28;20914;-73
2023/05/25 04:59:05;;;;;;;11.33;10.33;;;11.90;99.90;;;;;;5072864;28;20172;-73
2023/05/25 05:01:33;;;;;;;11.27;9.97;;;11.90;99.90;;;;;;5071637;28;20604;-71
2023/05/25 05:03:58;;;;;;;11.13;10.00;;;12.00;99.90;;;;;;5092403;28;20433;-71
2023/05/25 05:06:24;;;;;;;12.00;10.80;;;12.00;99.90;;;;;;5063020;28;20428;-72
2023/05/25 05:08:50;;;;;;;12.03;10.40;;;12.30;99.90;;;;;;5060343;28;20626;-72
2023/05/25 05:11:16;;;;;;;12.10;10.70;;;12.70;99.90;;;;;;5074199;28;20439;-72
2023/05/25 05:13:42;;;;;;;13.77;11.27;;;13.10;99.90;;;;;;5074471;28;20797;-71
2023/05/25 05:16:07;;;;;;;12.57;11.37;;;13.50;99.90;;;;;;5072134;28;20181;-72
2023/05/25 05:18:33;;;;;;;15.57;8.90;;;13.90;99.90;;;;;;5085513;28;20203;-72
2023/05/25 05:20:59;;;;;;;13.73;10.30;;;14.20;99.90;;;;;;5074776;28;20207;-72
2023/05/25 05:23:24;;;;;;;13.57;12.37;;;14.50;99.90;;;;;;5079348;28;20300;-72
2023/05/25 05:25:50;;;;;;;14.27;11.50;;;14.80;99.90;;;;;;5093847;28;20172;-72
2023/05/25 05:28:16;;;;;;;13.00;10.50;;;15.10;99.90;;;;;;5088693;28;20239;-71
2023/05/25 05:30:45;;;;;;;12.43;11.00;;;15.40;99.90;;;;;;5072918;28;20179;-72
2023/05/25 05:33:10;;;;;;;11.40;10.20;;;15.70;99.90;;;;;;5073369;28;20175;-72
2023/05/25 05:35:36;;;;;;;11.20;10.10;;;15.90;99.90;;;;;;5072031;28;20426;-72
2023/05/25 05:38:02;;;;;;;13.57;10.90;;;16.00;99.90;;;;;;5073032;28;20224;-72
2023/05/25 05:40:27;;;;;;;11.30;10.13;;;16.10;99.90;;;;;;5073769;28;20659;-72
2023/05/25 05:42:53;;;;;;;11.30;10.27;;;16.20;99.90;;;;;;5065740;28;20326;-72
2023/05/25 05:45:19;;;;;;;13.63;10.77;;;16.30;99.90;;;;;;5061396;28;20227;-72
2023/05/25 05:47:45;;;;;;;15.77;11.67;;;16.40;99.90;;;;;;5073307;28;20181;-72
2023/05/25 05:50:11;;;;;;;14.20;10.33;;;16.40;99.60;;;;;;5071333;28;20180;-71
2023/05/25 05:52:36;;;;;;;12.17;10.40;;;16.50;99.80;;;;;;5061164;28;20173;-71
2023/05/25 05:55:02;;;;;;;15.50;12.50;;;16.50;98.80;;;;;;5072354;28;20260;-71
2023/05/25 05:57:28;;;;;;;17.00;12.33;;;16.30;98.00;;;;;;5072813;28;20262;-74
2023/05/25 05:59:54;;;;;;;14.40;12.40;;;16.00;98.40;;;;;;5072399;28;20497;-78
2023/05/25 06:02:19;;;;;;;16.23;14.00;;;15.80;99.10;;;;;;5071147;28;20248;-72
2023/05/25 06:04:46;;;;;;;16.50;14.70;;;15.50;99.90;;;;;;5070432;28;20538;-73
2023/05/25 06:07:11;;;;;;;18.53;15.20;;;15.20;99.90;;;;;;5083609;28;20584;-72
2023/05/25 06:09:37;;;;;;;21.13;17.20;;;15.00;99.90;;;;;;5083968;28;20428;-72
2023/05/25 06:12:03;;;;;;;19.57;17.50;;;14.80;99.90;;;;;;5072832;28;20178;-72
2023/05/25 06:14:29;;;;;;;22.33;16.37;;;14.60;99.90;;;;;;5083373;28;20294;-73
2023/05/25 06:16:54;;;;;;;22.70;16.37;;;14.40;99.90;;;;;;5058198;28;20445;-73
2023/05/25 06:19:20;;;;;;;16.10;13.00;;;14.30;99.90;;;;;;5062267;28;20507;-73
2023/05/25 06:21:46;;;;;;;18.60;14.07;;;14.10;99.90;;;;;;5074470;28;20204;-73
2023/05/25 06:24:14;;;;;;;17.57;13.80;;;13.90;99.90;;;;;;5072240;28;20762;-74
2023/05/25 06:26:40;;;;;;;19.07;14.77;;;13.80;99.90;;;;;;5077036;28;20245;-72
2023/05/25 06:29:06;;;;;;;19.00;14.20;;;13.70;99.90;;;;;;5088474;28;20402;-72
2023/05/25 06:31:32;;;;;;;19.13;15.60;;;13.40;99.90;;;;;;5076299;28;20184;-72
2023/05/25 06:33:58;;;;;;;20.17;14.90;;;13.30;99.90;;;;;;5074907;28;20410;-72
2023/05/25 06:36:24;;;;;;;21.23;15.67;;;13.00;99.90;;;;;;5075000;28;20181;-72
2023/05/25 06:38:49;;;;;;;19.63;15.40;;;13.10;99.90;;;;;;5071362;28;20227;-72
2023/05/25 06:41:17;;;;;;;19.30;16.30;;;13.20;99.90;;;;;;5071606;28;20215;-72
2023/05/25 06:43:43;;;;;;;23.53;17.77;;;13.30;99.90;;;;;;5071654;28;20415;-72
2023/05/25 06:46:09;;;;;;;23.43;18.07;;;13.30;99.90;;;;;;5071870;28;20897;-74
2023/05/25 06:48:36;;;;;;;25.90;18.37;;;13.30;99.90;;;;;;5072731;28;20249;-74
2023/05/25 06:51:02;;;;;;;19.87;17.43;;;13.40;99.90;;;;;;5072088;28;20415;-73
2023/05/25 06:53:28;;;;;;;25.67;19.17;;;13.40;99.90;;;;;;5072684;28;20461;-74
2023/05/25 06:55:54;;;;;;;18.37;16.37;;;13.50;99.90;;;;;;5072578;28;20875;-73
2023/05/25 06:58:20;;;;;;;24.10;17.50;;;13.50;99.90;;;;;;5072660;28;20169;-73
2023/05/25 07:00:45;;;;;;;26.93;18.30;;;13.50;99.90;;;;;;5078385;28;20453;-71
2023/05/25 07:03:11;;;;;;;19.33;16.77;;;13.60;99.90;;;;;;5072474;28;20228;-70
2023/05/25 07:05:37;;;;;;;19.60;16.30;;;13.70;99.90;;;;;;5065203;28;20194;-70
2023/05/25 07:08:03;;;;;;;22.90;17.17;;;13.80;99.90;;;;;;5072159;28;20184;-71
2023/05/25 07:10:28;;;;;;;20.50;16.53;;;13.70;99.90;;;;;;5066288;28;20184;-71
2023/05/25 07:12:56;;;;;;;21.67;16.10;;;13.80;99.90;;;;;;5056860;28;20589;-71
2023/05/25 07:15:22;;;;;;;18.67;16.40;;;14.00;99.90;;;;;;5063972;28;20481;-71
2023/05/25 07:17:48;;;;;;;20.03;17.43;;;14.10;99.90;;;;;;5063815;28;20369;-71
2023/05/25 07:20:14;;;;;;;22.63;17.20;;;14.20;99.90;;;;;;5073179;28;20955;-71
2023/05/25 07:22:42;;;;;;;15.90;13.20;;;14.30;99.90;;;;;;5057634;28;20425;-71
2023/05/25 07:25:08;;;;;;;19.27;15.00;;;14.40;99.90;;;;;;5058571;28;20850;-71
2023/05/25 07:27:34;;;;;;;17.37;14.87;;;14.60;99.90;;;;;;5074120;28;20405;-71
2023/05/25 07:30:04;;;;;;;17.20;13.77;;;14.80;99.90;;;;;;5075590;28;20411;-71
2023/05/25 07:32:29;;;;;;;16.27;14.23;;;14.80;99.90;;;;;;5075185;28;20450;-71
2023/05/25 07:34:55;;;;;;;16.20;14.57;;;14.90;99.90;;;;;;5074393;28;20945;-71
2023/05/25 07:37:21;;;;;;;16.33;14.73;;;15.10;99.90;;;;;;5075078;28;20182;-71
2023/05/25 07:39:47;;;;;;;24.77;15.67;;;15.10;99.90;;;;;;5076489;28;20178;-70
2023/05/25 07:42:12;;;;;;;20.60;16.53;;;15.10;99.90;;;;;;5074269;28;20191;-71
2023/05/25 07:44:38;;;;;;;19.30;14.63;;;15.20;99.90;;;;;;5072420;28;20186;-71
2023/05/25 07:47:05;;;;;;;18.53;16.63;;;15.40;99.90;;;;;;5072325;28;20213;-71
2023/05/25 07:49:31;;;;;;;25.40;17.20;;;15.50;99.90;;;;;;5071183;28;20244;-71
2023/05/25 07:51:57;;;;;;;14.93;13.53;;;15.50;99.90;;;;;;5063613;28;20434;-71
2023/05/25 07:54:23;;;;;;;17.00;14.97;;;15.60;99.90;;;;;;5065888;28;20184;-71
2023/05/25 07:56:48;;;;;;;16.87;15.03;;;15.60;99.90;;;;;;5075644;28;20405;-71
2023/05/25 07:59:14;;;;;;;15.20;13.70;;;15.50;99.90;;;;;;5073987;28;20648;-71
2023/05/25 08:01:40;;;;;;;17.20;14.57;;;15.40;99.90;;;;;;5086885;28;20218;-71
2023/05/25 08:04:06;;;;;;;16.77;15.03;;;15.50;99.90;;;;;;5074317;28;20650;-71
2023/05/25 08:06:31;;;;;;;19.30;15.50;;;15.40;99.90;;;;;;5092496;28;20189;-71
2023/05/25 08:08:57;;;;;;;20.27;16.30;;;15.40;99.90;;;;;;5062705;28;20293;-71
2023/05/25 08:11:26;;;;;;;19.73;16.73;;;15.40;99.90;;;;;;5074335;28;20237;-71
2023/05/25 08:13:52;;;;;;;19.67;14.97;;;15.40;99.90;;;;;;5064372;28;20180;-71
2023/05/25 08:16:18;;;;;;;17.73;15.93;;;15.40;99.90;;;;;;5054947;28;20817;-71
2023/05/25 08:18:45;;;;;;;19.33;15.70;;;15.40;99.90;;;;;;5067922;28;20467;-72
2023/05/25 08:21:12;;;;;;;17.00;15.27;;;15.50;99.90;;;;;;5079057;28;20250;-71
2023/05/25 08:23:41;;;;;;;16.23;14.50;;;15.60;99.90;;;;;;5072428;28;20471;-72
2023/05/25 08:26:08;;;;;;;17.77;16.03;;;15.70;99.90;;;;;;5054098;28;20403;-71
2023/05/25 08:28:34;;;;;;;15.93;14.23;;;15.70;99.90;;;;;;5054057;28;20415;-71
2023/05/25 08:31:00;;;;;;;13.43;12.00;;;15.70;99.90;;;;;;5073198;28;20433;-71
2023/05/25 08:33:25;;;;;;;14.33;11.90;;;15.70;99.90;;;;;;5075324;28;20176;-71
2023/05/25 08:35:52;;;;;;;13.20;11.90;;;15.60;99.90;;;;;;5073619;28;20455;-71
2023/05/25 08:38:17;;;;;;;14.57;10.50;;;15.70;99.90;;;;;;5073860;28;20213;-72
2023/05/25 08:40:45;;;;;;;12.50;11.30;;;15.70;99.90;;;;;;5074583;28;20783;-71
2023/05/25 08:43:10;;;;;;;13.30;11.53;;;15.70;99.90;;;;;;5074476;28;20183;-71
2023/05/25 08:45:36;;;;;;;10.30;8.50;;;15.80;99.90;;;;;;5075083;28;20869;-71
2023/05/25 08:48:05;;;;;;;11.40;9.80;;;15.80;99.90;;;;;;5074113;28;20624;-71
2023/05/25 08:50:33;;;;;;;10.30;9.30;;;15.90;99.90;;;;;;5073729;28;20182;-71
2023/05/25 08:53:03;;;;;;;17.27;9.77;;;15.90;99.90;;;;;;5073619;28;20513;-71
2023/05/25 08:55:35;;;;;;;10.50;9.37;;;15.90;99.90;;;;;;5075327;28;20380;-71
2023/05/25 08:58:17;;;;;;;11.33;9.87;;;16.00;99.90;;;;;;5074729;28;20486;-71
2023/05/25 09:00:50;;;;;;;12.37;9.90;;;16.00;99.90;;;;;;5074371;28;20486;-71
2023/05/25 09:03:19;;;;;;;11.00;9.80;;;16.10;99.90;;;;;;5072927;28;20400;-71
2023/05/25 09:05:46;;;;;;;14.00;10.87;;;16.10;99.90;;;;;;5074851;28;20415;-71
2023/05/25 09:08:12;;;;;;;11.00;9.90;;;16.10;99.90;;;;;;5072532;28;20416;-71
2023/05/25 09:10:38;;;;;;;11.00;9.67;;;16.00;99.90;;;;;;5074463;28;20760;-71
2023/05/25 09:13:05;;;;;;;11.87;10.37;;;16.00;99.90;;;;;;5073876;28;20947;-71
2023/05/25 09:15:34;;;;;;;10.30;9.40;;;15.90;99.90;;;;;;5074667;28;20464;-71
2023/05/25 09:18:00;;;;;;;10.37;8.70;;;15.90;99.90;;;;;;5074367;28;20400;-71
2023/05/25 09:20:30;;;;;;;11.17;10.03;;;15.90;99.90;;;;;;5073633;28;20455;-71
2023/05/25 09:22:59;;;;;;;10.03;9.20;;;15.90;99.90;;;;;;5073097;28;20235;-71
2023/05/25 09:25:27;;;;;;;10.47;8.90;;;15.90;99.90;;;;;;5073585;28;20435;-71
2023/05/25 09:27:55;;;;;;;10.70;9.67;;;16.00;99.90;;;;;;5074073;28;20408;-71
2023/05/25 09:30:21;;;;;;;11.87;9.27;;;16.10;99.90;;;;;;5072303;28;20403;-71
2023/05/25 09:32:47;;;;;;;10.60;8.83;;;16.10;99.90;;;;;;5074136;28;20807;-71
2023/05/25 09:35:14;;;;;;;15.13;10.57;;;16.10;99.90;;;;;;5073419;28;20568;-71
2023/05/25 09:37:41;;;;;;;10.70;8.57;;;16.10;99.90;;;;;;5073789;28;20302;-71
2023/05/25 09:40:08;;;;;;;9.63;8.70;;;16.10;99.90;;;;;;5073472;28;20549;-71
2023/05/25 09:42:34;;;;;;;10.10;9.20;;;16.10;99.90;;;;;;5073835;28;20505;-71
2023/05/25 09:45:04;;;;;;;11.50;8.90;;;16.00;99.90;;;;;;5073675;28;20411;-71
2023/05/25 09:47:30;;;;;;;10.07;9.27;;;16.00;99.90;;;;;;5073637;28;20751;-71
2023/05/25 09:49:57;;;;;;;11.13;10.03;;;15.90;99.90;;;;;;5073743;28;20743;-71
2023/05/25 09:52:23;;;;;;;10.63;9.47;;;15.90;99.90;;;;;;5071165;28;20422;-71
2023/05/25 09:54:50;;;;;;;10.17;9.17;;;15.90;99.90;;;;;;5073597;28;20406;-71
2023/05/25 09:57:17;;;;;;;10.67;9.57;;;15.90;99.90;;;;;;5072965;28;20413;-71
2023/05/25 09:59:44;;;;;;;10.80;9.70;;;15.90;99.90;;;;;;5072229;28;20423;-71
2023/05/25 10:02:11;;;;;;;11.90;8.97;;;15.90;99.90;;;;;;5072757;28;20807;-71
2023/05/25 10:04:37;;;;;;;12.10;9.67;;;15.90;99.90;;;;;;5073325;28;20471;-71
2023/05/25 10:07:04;;;;;;;10.67;9.63;;;15.80;99.90;;;;;;5073612;28;20402;-71
2023/05/25 10:09:31;;;;;;;11.60;10.50;;;15.90;99.90;;;;;;5072707;28;20450;-71
2023/05/25 10:11:58;;;;;;;12.53;11.33;;;15.90;99.90;;;;;;5073257;28;20425;-71
2023/05/25 10:14:28;;;;;;;12.30;11.10;;;15.90;99.90;;;;;;5072865;28;20859;-71
2023/05/25 10:16:57;;;;;;;13.47;10.77;;;15.90;99.90;;;;;;5073192;28;20403;-71
2023/05/25 10:19:47;;;;;;;12.60;10.50;;;15.90;99.90;;;;;;5072276;28;20411;-71
2023/05/25 10:22:41;;;;;;;11.87;8.97;;;15.80;99.90;;;;;;5070601;28;20494;-70
2023/05/25 10:25:21;;;;;;;10.00;8.80;;;15.80;99.90;;;;;;5071346;28;20411;-70
2023/05/25 10:27:54;;;;;;;13.90;9.20;;;15.70;99.90;;;;;;5073254;28;20394;-71
2023/05/25 10:30:21;;;;;;;8.73;7.90;;;15.70;99.90;;;;;;5072436;28;20400;-71
2023/05/25 10:32:47;;;;;;;9.70;8.23;;;15.70;99.90;;;;;;5071706;28;20497;-71
2023/05/25 10:35:13;;;;;;;10.20;8.57;;;15.80;99.90;;;;;;5072214;28;20447;-71
2023/05/25 10:37:39;;;;;;;11.00;8.50;;;15.70;99.90;;;;;;5072398;28;20485;-70
2023/05/25 10:40:07;;;;;;;12.83;8.80;;;15.70;99.90;;;;;;5072672;28;20458;-71
2023/05/25 10:42:35;;;;;;;9.70;8.90;;;15.70;99.90;;;;;;5071711;28;20472;-71
2023/05/25 10:45:07;;;;;;;10.40;9.40;;;15.70;99.90;;;;;;5072420;28;20941;-71
2023/05/25 10:47:36;;;;;;;10.93;9.87;;;15.70;99.90;;;;;;5070663;28;20435;-72
2023/05/25 10:50:03;;;;;;;10.53;8.63;;;15.80;99.90;;;;;;5072738;28;20414;-72
2023/05/25 10:52:30;;;;;;;12.00;11.00;;;15.80;99.90;;;;;;5070906;28;20414;-72
2023/05/25 10:55:00;;;;;;;11.23;10.20;;;15.90;99.90;;;;;;5072885;28;20457;-72
2023/05/25 10:57:27;;;;;;;12.37;9.63;;;16.00;99.90;;;;;;5072243;28;20418;-72
2023/05/25 11:00:05;;;;;;;13.83;10.90;;;15.90;99.90;;;;;;5072029;28;20797;-70
2023/05/25 11:02:53;;;;;;;10.47;9.50;;;15.90;99.90;;;;;;5072025;28;20403;-71
2023/05/25 11:05:25;;;;;;;12.40;11.30;;;15.90;99.90;;;;;;5072046;28;20528;-71
2023/05/25 11:07:53;;;;;;;10.07;9.07;;;16.00;99.90;;;;;;5072946;28;20419;-73
2023/05/25 11:10:41;;;;;;;10.77;9.67;;;16.00;99.90;;;;;;5070677;28;20816;-71
2023/05/25 11:13:49;;;;;;;10.03;9.03;;;16.00;99.90;;;;;;5072388;28;20407;-71
2023/05/25 11:16:34;;;;;;;10.53;9.47;;;16.00;99.90;;;;;;5048423;28;20444;-70
2023/05/25 11:19:01;;;;;;;15.37;13.87;;;16.00;99.90;;;;;;5070067;28;20435;-70
2023/05/25 11:21:31;;;;;;;12.50;11.33;;;16.00;99.90;;;;;;5071738;28;20451;-71
2023/05/25 11:24:02;;;;;;;13.80;11.43;;;16.10;99.90;;;;;;5068808;28;20431;-71
2023/05/25 11:26:30;;;;;;;11.03;9.67;;;16.20;99.90;;;;;;5071689;28;20411;-71
2023/05/25 11:28:57;;;;;;;11.43;10.33;;;16.20;99.90;;;;;;5072494;28;20402;-71
2023/05/25 11:31:31;;;;;;;11.07;9.93;;;16.20;99.90;;;;;;5071684;28;20419;-71
2023/05/25 11:34:03;;;;;;;12.43;11.10;;;16.20;99.90;;;;;;5072360;28;20410;-72
2023/05/25 11:36:32;;;;;;;11.20;10.10;;;16.20;99.90;;;;;;5069856;28;20400;-70
2023/05/25 11:39:03;;;;;;;11.73;9.97;;;16.20;99.90;;;;;;5072228;28;20459;-71
2023/05/25 11:41:30;;;;;;;12.80;11.60;;;16.30;99.90;;;;;;5071559;28;20459;-71
2023/05/25 11:44:03;;;;;;;12.03;10.27;;;16.30;99.90;;;;;;5072394;28;20460;-71
2023/05/25 11:46:31;;;;;;;11.60;10.50;;;16.30;99.90;;;;;;5071896;28;20478;-71
2023/05/25 11:48:58;;;;;;;13.80;11.27;;;16.40;99.90;;;;;;5070209;28;20552;-71
2023/05/25 11:51:28;;;;;;;12.10;10.90;;;16.40;99.90;;;;;;5069945;28;20737;-71
2023/05/25 11:53:54;;;;;;;14.47;12.00;;;16.40;99.90;;;;;;5072196;28;20485;-71
2023/05/25 11:56:23;;;;;;;14.47;10.87;;;16.50;99.90;;;;;;5071467;28;20399;-71
2023/05/25 11:58:52;;;;;;;13.40;12.10;;;16.60;99.90;;;;;;5071970;28;20760;-72
2023/05/25 12:01:18;;;;;;;12.33;11.23;;;16.60;99.90;;;;;;5071523;28;20455;-72
2023/05/25 12:03:54;;;;;;;13.43;9.80;;;16.60;99.90;;;;;;5071924;28;20461;-73
2023/05/25 12:06:25;;;;;;;10.77;9.67;;;16.70;99.90;;;;;;5071476;28;20427;-72
2023/05/25 12:08:51;;;;;;;12.93;11.73;;;16.60;99.90;;;;;;5071587;28;20426;-73
2023/05/25 12:11:25;;;;;;;13.63;12.17;;;16.60;99.90;;;;;;5072211;28;20411;-71
2023/05/25 12:13:52;;;;;;;12.20;11.03;;;16.80;99.90;;;;;;5074338;28;20403;-71
2023/05/25 12:16:18;;;;;;;13.60;10.97;;;16.80;99.90;;;;;;5072404;28;20526;-72
2023/05/25 12:18:44;;;;;;;11.77;10.73;;;16.90;99.90;;;;;;5075430;28;20391;-72
2023/05/25 12:21:10;;;;;;;12.20;11.10;;;17.00;99.90;;;;;;5075401;28;20803;-72
2023/05/25 12:23:36;;;;;;;14.20;11.20;;;17.00;99.90;;;;;;5074772;28;20494;-72
2023/05/25 12:26:13;;;;;;;13.60;12.00;;;17.00;99.90;;;;;;5075465;28;20192;-71
2023/05/25 12:28:40;;;;;;;14.00;11.60;;;17.00;99.90;;;;;;5075578;28;20411;-71
2023/05/25 12:31:22;;;;;;;12.47;11.07;;;17.00;99.90;;;;;;5075405;28;20396;-71
2023/05/25 12:34:09;;;;;;;12.10;10.70;;;17.00;99.90;;;;;;5075172;28;20412;-73